Time;durP1;ratioP1;P1;durP2;ratioP2;P2;SDS_P1;SDS_P2;PMS_P1;PMS_P2;Temp;Humidity;BMP_temperature;BMP_pressure;BME280_temperature;BME280_humidity;BME280_pressure;Samples;Min_cycle;Max_cycle;Signal;HPM_P1;HPM_P2
2022/11/15 00:00:56;;;;;;;18.50;9.75;;;;;;;3.59;94.76;98905.89;1767918;81;25604;-64
2022/11/15 00:03:26;;;;;;;20.17;10.88;;;;;;;3.51;94.58;98899.06;1768368;81;26128;-65
2022/11/15 00:05:53;;;;;;;13.93;7.95;;;;;;;3.47;95.02;98897.97;1767912;81;25620;-66
2022/11/15 00:08:20;;;;;;;19.57;10.75;;;;;;;3.42;95.10;98890.62;1768228;81;27553;-65
2022/11/15 00:11:01;;;;;;;18.30;10.38;;;;;;;3.36;94.77;98889.77;1767842;81;25686;-65
2022/11/15 00:13:28;;;;;;;18.15;10.58;;;;;;;3.38;95.32;98884.09;1768286;81;25476;-64
2022/11/15 00:15:58;;;;;;;19.00;11.00;;;;;;;3.41;95.49;98890.34;1767931;81;25434;-68
2022/11/15 00:18:25;;;;;;;25.52;12.58;;;;;;;3.41;95.23;98889.52;1768677;81;25686;-64
2022/11/15 00:20:52;;;;;;;21.07;11.30;;;;;;;3.45;95.46;98883.88;1768229;81;28418;-69
2022/11/15 00:23:18;;;;;;;17.17;9.30;;;;;;;3.53;95.68;98889.32;1767832;81;25669;-63
2022/11/15 00:25:45;;;;;;;14.90;9.50;;;;;;;3.53;95.01;98886.09;1767957;80;25591;-69
2022/11/15 00:28:11;;;;;;;15.85;8.83;;;;;;;3.46;94.58;98884.15;1767879;81;25513;-66
2022/11/15 00:30:38;;;;;;;15.88;9.55;;;;;;;3.44;94.68;98882.23;1767943;81;25483;-65
2022/11/15 00:33:06;;;;;;;16.45;9.75;;;;;;;3.37;94.30;98880.56;1767843;81;27462;-64
2022/11/15 00:35:34;;;;;;;20.30;10.70;;;;;;;3.40;94.91;98879.24;1767926;81;25610;-64
2022/11/15 00:38:02;;;;;;;24.10;12.25;;;;;;;3.47;95.19;98877.11;1768482;81;25682;-64
2022/11/15 00:40:29;;;;;;;22.17;11.90;;;;;;;3.55;95.39;98872.28;1767765;81;25704;-73
2022/11/15 00:42:55;;;;;;;20.48;11.95;;;;;;;3.57;94.93;98868.78;1768246;81;25493;-64
2022/11/15 00:45:22;;;;;;;20.23;11.08;;;;;;;3.57;94.70;98866.06;1768361;81;27222;-64
2022/11/15 00:47:49;;;;;;;9.83;6.30;;;;;;;3.50;94.41;98858.98;1768290;81;25667;-66
2022/11/15 00:50:16;;;;;;;18.82;10.53;;;;;;;3.37;94.08;98857.53;1767882;81;25666;-65
2022/11/15 00:52:43;;;;;;;20.43;11.57;;;;;;;3.20;93.89;98854.17;1768135;81;25585;-64
2022/11/15 00:55:16;;;;;;;20.30;9.95;;;;;;;3.17;94.82;98847.40;1767829;81;25671;-67
2022/11/15 00:57:43;;;;;;;16.07;8.45;;;;;;;3.18;94.81;98847.66;1767355;81;27427;-64
2022/11/15 01:00:12;;;;;;;14.95;8.18;;;;;;;3.16;94.98;98845.74;1768101;81;25458;-65
2022/11/15 01:02:39;;;;;;;16.80;9.93;;;;;;;3.12;94.83;98844.64;1768297;81;25415;-66
2022/11/15 01:05:08;;;;;;;23.35;11.78;;;;;;;3.03;94.67;98844.84;1768030;81;25617;-65
2022/11/15 01:07:35;;;;;;;13.05;8.65;;;;;;;3.05;95.30;98846.20;1768218;81;25476;-65
2022/11/15 01:10:02;;;;;;;18.02;10.03;;;;;;;3.07;95.17;98830.52;1767909;81;27377;-66
2022/11/15 01:12:29;;;;;;;18.90;10.85;;;;;;;3.06;95.08;98828.08;1768227;81;25922;-75
2022/11/15 01:14:56;;;;;;;19.73;10.25;;;;;;;3.09;95.23;98831.62;1767812;81;25648;-65
2022/11/15 01:17:23;;;;;;;20.65;11.55;;;;;;;3.13;95.08;98828.66;1768165;81;25423;-64
2022/11/15 01:19:51;;;;;;;18.55;10.98;;;;;;;3.17;95.29;98829.80;1768338;81;25415;-64
2022/11/15 01:22:18;;;;;;;19.45;11.80;;;;;;;3.19;95.04;98828.18;1767776;81;27385;-70
2022/11/15 01:24:44;;;;;;;17.48;10.15;;;;;;;3.23;95.05;98823.86;1767983;81;25477;-70
2022/11/15 01:27:11;;;;;;;21.05;11.48;;;;;;;3.21;94.61;98816.53;1777363;80;25493;-66
2022/11/15 01:29:38;;;;;;;23.42;12.18;;;;;;;3.20;94.73;98817.05;1785020;80;25603;-65
2022/11/15 01:32:05;;;;;;;15.25;8.65;;;;;;;3.20;94.48;98806.78;1785069;80;25480;-66
2022/11/15 01:34:32;;;;;;;13.98;8.48;;;;;;;3.10;94.20;98808.34;1784604;80;27492;-66
2022/11/15 01:36:58;;;;;;;21.30;11.33;;;;;;;3.07;94.36;98812.09;1784463;80;25663;-65
2022/11/15 01:39:26;;;;;;;19.12;11.50;;;;;;;3.04;94.42;98812.09;1785090;80;25601;-65
2022/11/15 01:41:52;;;;;;;16.42;9.83;;;;;;;3.03;94.34;98806.41;1784624;80;25669;-65
2022/11/15 01:44:42;;;;;;;18.82;9.63;;;;;;;2.97;94.22;98809.59;1784722;80;25424;-64
2022/11/15 01:47:32;;;;;;;17.15;9.23;;;;;;;2.92;94.00;98805.51;1784831;80;27471;-66
2022/11/15 01:50:06;;;;;;;17.92;10.58;;;;;;;2.93;94.37;98802.28;1784049;80;25695;-65
2022/11/15 01:52:35;;;;;;;18.92;10.28;;;;;;;2.93;94.46;98800.92;1754488;80;25454;-65
2022/11/15 01:55:10;;;;;;;24.50;12.05;;;;;;;2.92;94.51;98801.45;1784955;80;26230;-68
2022/11/15 01:57:39;;;;;;;19.95;11.63;;;;;;;2.93;94.54;98796.86;1785063;80;25668;-65
2022/11/15 02:00:07;;;;;;;20.55;10.65;;;;;;;2.95;94.50;98787.92;1785067;80;27495;-63
2022/11/15 02:02:36;;;;;;;20.32;10.70;;;;;;;2.90;94.34;98794.67;1784981;80;25496;-66
2022/11/15 02:05:03;;;;;;;21.52;11.53;;;;;;;2.90;94.51;98795.47;1784683;80;25622;-67
2022/11/15 02:07:32;;;;;;;20.82;11.25;;;;;;;2.89;94.38;98781.66;1784681;80;26004;-66
2022/11/15 02:10:04;;;;;;;20.62;11.88;;;;;;;2.92;94.57;98780.32;1785192;80;25622;-65
2022/11/15 02:12:30;;;;;;;22.22;12.40;;;;;;;2.90;94.53;98776.52;1783494;80;27510;-68
2022/11/15 02:14:57;;;;;;;23.30;11.75;;;;;;;2.90;94.63;98772.45;1784742;80;27138;-67
2022/11/15 02:17:49;;;;;;;22.30;12.53;;;;;;;2.90;94.47;98770.31;1784810;80;25610;-65
2022/11/15 02:20:40;;;;;;;19.23;10.95;;;;;;;2.88;94.52;98767.86;1784809;80;25899;-65
2022/11/15 02:23:41;;;;;;;25.13;11.97;;;;;;;2.88;94.55;98761.89;1784986;80;25451;-67
2022/11/15 02:26:37;;;;;;;21.95;11.22;;;;;;;2.92;94.77;98756.78;1785225;80;27450;-70
2022/11/15 02:29:13;;;;;;;20.80;11.75;;;;;;;2.87;94.30;98754.03;1780835;80;25765;-66
2022/11/15 02:32:08;;;;;;;17.05;8.50;;;;;;;2.86;94.44;98753.76;1689008;84;25482;-65
2022/11/15 02:35:04;;;;;;;26.23;12.70;;;;;;;2.82;94.49;98755.36;1689150;84;26126;-66
2022/11/15 02:37:42;;;;;;;22.13;11.65;;;;;;;2.81;94.49;98751.83;1632595;87;25922;-65
2022/11/15 02:40:22;;;;;;;19.87;11.22;;;;;;;2.77;94.42;98752.08;1632252;87;27417;-70
2022/11/15 02:45:48;;;;;;;21.42;11.78;;;;;;;2.74;94.78;98741.77;1632707;87;25740;-70
2022/11/15 02:48:17;;;;;;;22.17;12.33;;;;;;;2.74;94.78;98748.54;1631801;87;25646;-66
2022/11/15 02:50:45;;;;;;;20.95;11.95;;;;;;;2.71;94.68;98743.09;1632801;87;25745;-65
2022/11/15 02:53:12;;;;;;;21.75;12.63;;;;;;;2.70;94.65;98748.23;1632686;87;26922;-66
2022/11/15 02:55:42;;;;;;;25.02;12.65;;;;;;;2.70;94.81;98746.88;1632427;87;25778;-68
2022/11/15 02:58:44;;;;;;;22.35;12.40;;;;;;;2.75;95.00;98742.05;1632860;87;25677;-66
2022/11/15 03:01:28;;;;;;;22.22;12.13;;;;;;;2.77;94.95;98742.61;1632536;87;25721;-74
2022/11/15 03:04:42;;;;;;;27.52;14.75;;;;;;;2.79;94.85;98735.59;1632450;87;25869;-66
2022/11/15 03:07:23;;;;;;;23.12;12.85;;;;;;;2.85;95.18;98732.63;1564016;91;27493;-67
2022/11/15 03:10:04;;;;;;;22.65;12.15;;;;;;;2.89;95.03;98731.59;1582150;90;25751;-65
2022/11/15 03:12:46;;;;;;;22.82;12.23;;;;;;;2.89;94.71;98727.53;1564082;91;25752;-69
2022/11/15 03:15:32;;;;;;;15.72;8.30;;;;;;;2.86;94.38;98725.34;1610783;88;25495;-65
2022/11/15 03:18:25;;;;;;;22.07;11.50;;;;;;;2.80;94.43;98710.14;1635525;87;25775;-65
2022/11/15 03:20:53;;;;;;;18.57;10.50;;;;;;;2.76;94.38;98711.19;1635233;87;28018;-66
2022/11/15 03:23:21;;;;;;;21.07;11.78;;;;;;;2.80;94.70;98706.08;1640659;87;25515;-66
2022/11/15 03:25:51;;;;;;;24.70;12.28;;;;;;;2.82;94.75;98702.03;1668325;86;25513;-65
2022/11/15 03:28:34;;;;;;;22.13;11.50;;;;;;;2.83;94.67;98703.68;1634306;86;25780;-67
2022/11/15 03:31:46;;;;;;;21.77;12.05;;;;;;;2.85;94.64;98704.77;1594410;89;25732;-70
2022/11/15 03:33:31;;;;;;;22.80;12.18;;;;;;;2.86;94.77;98701.80;1592072;89;25832;-70
2022/11/15 03:35:59;;;;;;;18.85;11.10;;;;;;;2.94;95.00;98693.70;1581712;90;25804;-65
2022/11/15 03:38:27;;;;;;;21.75;11.22;;;;;;;2.97;94.59;98693.17;1581871;90;25581;-65
2022/11/15 03:41:00;;;;;;;21.33;11.90;;;;;;;2.91;93.83;98693.42;1596588;88;25891;-66
2022/11/15 03:43:41;;;;;;;22.73;11.10;;;;;;;2.82;93.94;98684.99;1654384;85;25514;-68
2022/11/15 03:46:18;;;;;;;20.55;12.13;;;;;;;2.74;93.78;98681.68;1706307;84;27222;-75
2022/11/15 03:48:56;;;;;;;20.32;11.53;;;;;;;2.67;94.22;98682.45;1706253;84;27334;-68
2022/11/15 03:51:23;;;;;;;15.78;7.80;;;;;;;2.71;94.66;98682.20;1706800;84;25520;-65
2022/11/15 03:53:50;;;;;;;21.65;11.80;;;;;;;2.66;94.54;98671.89;1706406;84;25703;-66
2022/11/15 03:56:16;;;;;;;15.93;9.30;;;;;;;2.64;94.67;98676.20;1706743;84;25635;-71
2022/11/15 03:58:43;;;;;;;17.27;9.75;;;;;;;2.51;94.30;98671.52;1706848;84;26892;-67
2022/11/15 04:01:09;;;;;;;15.80;9.50;;;;;;;2.42;94.54;98666.87;1706353;84;25627;-66
2022/11/15 04:03:36;;;;;;;17.85;9.83;;;;;;;2.38;94.59;98669.27;1706448;83;25686;-66
2022/11/15 04:06:02;;;;;;;14.85;7.70;;;;;;;2.37;94.68;98664.94;1706854;84;25578;-66
2022/11/15 04:08:28;;;;;;;19.67;10.75;;;;;;;2.31;94.73;98656.52;1706491;84;25497;-69
2022/11/15 04:10:55;;;;;;;15.28;9.25;;;;;;;2.22;94.59;98657.53;1706367;84;27429;-69
2022/11/15 04:13:21;;;;;;;18.45;10.40;;;;;;;2.19;95.09;98663.45;1706346;83;25462;-68
2022/11/15 04:15:48;;;;;;;18.75;10.95;;;;;;;2.23;95.31;98659.16;1706583;83;25508;-66
2022/11/15 04:18:14;;;;;;;17.50;10.32;;;;;;;2.30;95.43;98655.69;1706409;84;25509;-66
2022/11/15 04:26:18;;;;;;;21.62;12.82;;;;;;;2.21;94.86;98662.12;1706375;84;25650;-67
2022/11/15 04:31:30;;;;;;;21.52;11.80;;;;;;;2.34;95.34;98662.75;1733763;82;25652;-65
2022/11/15 04:33:57;;;;;;;24.18;12.75;;;;;;;2.40;95.16;98650.91;1734160;82;25613;-68
2022/11/15 04:39:09;;;;;;;21.93;11.50;;;;;;;2.46;94.91;98646.33;1733631;82;25657;-66
2022/11/15 04:41:36;;;;;;;23.65;14.10;;;;;;;2.50;94.98;98649.61;1734128;82;25674;-66
2022/11/15 04:44:02;;;;;;;21.95;12.33;;;;;;;2.59;95.15;98649.14;1733653;82;25510;-66
2022/11/15 04:46:28;;;;;;;20.88;12.40;;;;;;;2.58;94.50;98653.72;1734234;82;25434;-66
2022/11/15 04:48:55;;;;;;;19.92;10.80;;;;;;;2.56;94.27;98651.80;1733884;82;27527;-69
2022/11/15 04:51:22;;;;;;;12.88;7.65;;;;;;;2.45;93.33;98644.72;1733647;82;27244;-67
2022/11/15 04:53:48;;;;;;;17.90;10.53;;;;;;;2.30;93.52;98640.81;1733628;82;25495;-66
2022/11/15 04:56:14;;;;;;;21.97;11.48;;;;;;;2.17;93.62;98641.26;1733931;82;25474;-74
2022/11/15 04:58:41;;;;;;;23.40;12.25;;;;;;;2.12;94.03;98633.92;1734043;82;25470;-66
2022/11/15 05:01:14;;;;;;;23.25;12.65;;;;;;;2.10;94.45;98635.53;1733731;82;27484;-66
2022/11/15 05:06:28;;;;;;;20.17;12.20;;;;;;;2.19;94.45;98629.66;1733717;82;25475;-74
2022/11/15 05:08:56;;;;;;;22.50;12.88;;;;;;;2.22;94.42;98631.29;1734350;82;26195;-66
2022/11/15 05:11:22;;;;;;;22.30;12.63;;;;;;;2.27;94.23;98624.31;1734047;82;25448;-67
2022/11/15 05:13:49;;;;;;;20.35;11.28;;;;;;;2.27;94.21;98622.95;1733765;82;27425;-66
2022/11/15 05:16:15;;;;;;;24.25;12.75;;;;;;;2.29;94.04;98622.97;1733673;82;25487;-66
2022/11/15 05:18:43;;;;;;;25.82;13.15;;;;;;;2.21;93.53;98614.80;1733949;82;25709;-67
2022/11/15 05:21:14;;;;;;;27.48;12.73;;;;;;;2.26;94.33;98619.43;1733751;82;25657;-69
2022/11/15 05:23:41;;;;;;;28.90;14.75;;;;;;;2.32;93.97;98610.81;1734057;82;25625;-66
2022/11/15 05:26:09;;;;;;;28.30;15.72;;;;;;;2.34;94.20;98611.38;1733658;82;27415;-72
2022/11/15 05:28:36;;;;;;;24.40;13.50;;;;;;;2.37;94.04;98614.38;1733519;82;25479;-66
2022/11/15 05:31:06;;;;;;;28.83;14.98;;;;;;;2.35;93.86;98604.34;1733703;82;25458;-66
2022/11/15 05:33:34;;;;;;;27.42;14.15;;;;;;;2.35;93.74;98608.41;1726862;82;25609;-72
2022/11/15 05:36:21;;;;;;;27.22;13.38;;;;;;;2.34;93.54;98602.73;1734218;82;25423;-67
2022/11/15 05:38:48;;;;;;;33.08;16.52;;;;;;;2.25;93.23;98601.03;1734470;82;28309;-66
2022/11/15 05:41:18;;;;;;;40.98;19.10;;;;;;;2.18;93.46;98597.74;1733918;82;25503;-73
2022/11/15 05:43:46;;;;;;;36.42;18.00;;;;;;;2.18;93.71;98601.80;1733965;82;25707;-67
2022/11/15 05:46:14;;;;;;;32.30;15.40;;;;;;;2.15;93.66;98587.45;1733673;82;25565;-67
2022/11/15 05:48:49;;;;;;;28.85;14.68;;;;;;;2.05;93.12;98590.91;1733646;82;25674;-72
2022/11/15 05:51:17;;;;;;;28.57;14.85;;;;;;;2.05;93.78;98593.61;1734171;82;27462;-68
2022/11/15 05:53:44;;;;;;;28.02;14.50;;;;;;;2.04;93.51;98596.56;1727120;82;25492;-73
2022/11/15 05:56:12;;;;;;;30.25;14.73;;;;;;;1.99;93.29;98590.03;1705652;84;26443;-70
2022/11/15 05:58:38;;;;;;;27.20;14.38;;;;;;;2.02;93.70;98588.72;1707119;84;25440;-70
2022/11/15 06:01:06;;;;;;;27.50;14.90;;;;;;;2.00;93.23;98594.38;1707383;83;25606;-71
2022/11/15 06:03:32;;;;;;;28.25;15.00;;;;;;;1.98;93.38;98588.94;1707065;84;27515;-68
2022/11/15 06:05:58;;;;;;;29.02;15.30;;;;;;;2.05;93.75;98595.48;1707073;84;25662;-67
2022/11/15 06:08:24;;;;;;;32.73;18.37;;;;;;;2.11;93.91;98598.51;1707348;83;25637;-67
2022/11/15 06:10:51;;;;;;;31.62;15.70;;;;;;;2.16;93.73;98587.71;1707466;84;26023;-68
2022/11/15 06:13:18;;;;;;;42.80;23.02;;;;;;;2.15;93.50;98590.14;1707156;84;25441;-68
2022/11/15 06:15:44;;;;;;;23.60;13.93;;;;;;;2.15;93.30;98583.39;1707666;84;27515;-67
2022/11/15 06:18:11;;;;;;;29.40;15.03;;;;;;;2.12;93.08;98579.33;1707061;84;25610;-69
2022/11/15 06:20:38;;;;;;;24.85;13.58;;;;;;;2.13;93.11;98581.50;1707148;84;25494;-68
2022/11/15 06:23:05;;;;;;;24.98;14.15;;;;;;;2.15;93.16;98576.63;1707594;84;25641;-68
2022/11/15 06:25:31;;;;;;;33.75;19.48;;;;;;;2.19;93.13;98583.70;1707486;84;25421;-66
2022/11/15 06:27:59;;;;;;;44.80;23.18;;;;;;;2.23;93.28;98582.09;1710203;81;27395;-69
2022/11/15 06:30:27;;;;;;;49.10;22.32;;;;;;;2.29;93.58;98581.58;1723271;83;25705;-68
2022/11/15 06:33:05;;;;;;;47.00;22.73;;;;;;;2.36;93.40;98582.19;1723327;82;25673;-67
2022/11/15 06:35:34;;;;;;;43.25;19.15;;;;;;;2.44;93.38;98578.97;1723458;82;25762;-66
2022/11/15 06:38:09;;;;;;;29.00;14.20;;;;;;;2.48;92.92;98573.87;1723171;83;25672;-78
2022/11/15 06:40:37;;;;;;;27.42;14.98;;;;;;;2.46;92.75;98570.06;1732759;81;27509;-73
2022/11/15 06:43:05;;;;;;;24.23;12.78;;;;;;;2.43;92.47;98574.65;1752531;81;25684;-77
2022/11/15 06:45:32;;;;;;;24.50;13.45;;;;;;;2.33;92.18;98579.45;1756704;81;25745;-72
2022/11/15 06:47:59;;;;;;;21.10;11.53;;;;;;;2.30;92.64;98571.06;1756987;81;25605;-74
2022/11/15 06:50:26;;;;;;;25.48;14.33;;;;;;;2.27;92.59;98581.05;1752154;81;25882;-77
2022/11/15 06:52:52;;;;;;;35.48;16.82;;;;;;;2.19;92.65;98572.88;1756861;81;28422;-66
2022/11/15 06:55:18;;;;;;;40.33;18.60;;;;;;;2.17;93.11;98578.55;1756851;81;25470;-66
2022/11/15 06:57:51;;;;;;;40.70;19.23;;;;;;;2.23;93.50;98573.98;1756946;81;25487;-68
2022/11/15 07:00:20;;;;;;;39.45;18.00;;;;;;;2.32;93.73;98580.53;1756436;81;25447;-70
2022/11/15 07:02:48;;;;;;;42.30;19.98;;;;;;;2.43;93.82;98577.88;1756898;81;25422;-65
2022/11/15 07:05:15;;;;;;;37.33;17.92;;;;;;;2.52;93.82;98579.02;1756588;81;29666;-65
2022/11/15 07:07:41;;;;;;;31.73;16.42;;;;;;;2.64;93.93;98576.09;1756689;81;25644;-66
2022/11/15 07:10:09;;;;;;;29.77;15.80;;;;;;;2.72;93.52;98583.72;1756651;81;25482;-67
2022/11/15 07:12:36;;;;;;;31.42;16.67;;;;;;;2.75;93.20;98575.61;1756906;81;25448;-65
2022/11/15 07:15:02;;;;;;;30.97;16.12;;;;;;;2.77;93.38;98576.17;1757027;81;25669;-65
2022/11/15 07:17:29;;;;;;;32.98;16.82;;;;;;;2.90;93.69;98579.47;1756616;81;27431;-65
2022/11/15 07:19:55;;;;;;;33.13;17.40;;;;;;;3.01;93.72;98575.70;1756519;81;25603;-65
2022/11/15 07:22:22;;;;;;;28.32;16.77;;;;;;;3.11;93.22;98581.71;1756679;81;25656;-65
2022/11/15 07:24:49;;;;;;;47.17;21.30;;;;;;;3.29;93.91;98583.64;1756609;81;25474;-66
2022/11/15 07:27:16;;;;;;;57.43;25.32;;;;;;;3.58;94.09;98577.73;1757033;81;25622;-66
2022/11/15 07:29:42;;;;;;;42.27;21.20;;;;;;;3.91;93.89;98576.13;1750465;81;27463;-69
2022/11/15 07:32:10;;;;;;;47.33;23.98;;;;;;;4.22;93.12;98578.80;1748716;81;25672;-66
2022/11/15 07:34:36;;;;;;;39.38;21.93;;;;;;;4.58;92.76;98573.85;1749252;82;25610;-67
2022/11/15 07:37:03;;;;;;;29.70;18.87;;;;;;;4.87;91.56;98577.28;1749185;81;25971;-65
2022/11/15 07:39:29;;;;;;;31.75;18.82;;;;;;;4.97;90.08;98577.77;1748861;82;25427;-66
2022/11/15 07:42:52;;;;;;;32.25;18.85;;;;;;;4.95;89.37;98573.97;1748851;81;27443;-72
2022/11/15 07:44:26;;;;;;;38.38;18.90;;;;;;;4.91;89.27;98579.70;1744388;82;25716;-65
2022/11/15 07:46:52;;;;;;;30.77;17.02;;;;;;;4.88;89.30;98585.16;1748943;81;25692;-65
2022/11/15 07:49:19;;;;;;;30.50;16.87;;;;;;;4.91;89.62;98585.13;1749125;81;25590;-66
2022/11/15 07:51:45;;;;;;;33.95;18.55;;;;;;;4.94;89.53;98585.94;1745308;82;26544;-66
2022/11/15 07:54:11;;;;;;;38.65;21.10;;;;;;;4.99;89.79;98588.64;1748808;81;27475;-67
2022/11/15 07:56:38;;;;;;;52.88;23.92;;;;;;;5.12;90.33;98585.03;1748652;82;25712;-66
2022/11/15 07:59:05;;;;;;;80.80;33.33;;;;;;;5.25;90.39;98580.91;1748934;81;25614;-68
2022/11/15 08:01:31;;;;;;;64.80;27.62;;;;;;;5.35;90.12;98574.05;1748781;82;25700;-68
2022/11/15 08:03:58;;;;;;;93.37;36.73;;;;;;;5.59;91.33;98576.08;1748772;81;25634;-66
2022/11/15 08:06:31;;;;;;;109.15;39.65;;;;;;;5.76;88.36;98575.66;1748779;82;27413;-68
2022/11/15 08:08:58;;;;;;;71.60;31.23;;;;;;;5.84;89.00;98572.89;1749050;81;25911;-67
2022/11/15 08:11:25;;;;;;;64.65;30.02;;;;;;;6.11;89.89;98574.88;1749282;81;25420;-67
2022/11/15 08:13:51;;;;;;;55.08;26.60;;;;;;;6.38;89.43;98564.00;1749044;81;25709;-65
2022/11/15 08:16:18;;;;;;;43.98;23.10;;;;;;;6.73;88.92;98560.63;1748825;81;25617;-66
2022/11/15 08:18:44;;;;;;;41.63;21.10;;;;;;;7.07;88.52;98556.12;1749188;81;27513;-68
2022/11/15 08:21:18;;;;;;;33.80;20.43;;;;;;;7.30;86.77;98553.63;1748682;81;25664;-70
2022/11/15 08:23:45;;;;;;;40.20;20.68;;;;;;;7.47;87.18;98557.20;1749181;81;25463;-65
2022/11/15 08:26:12;;;;;;;34.83;19.62;;;;;;;7.81;86.77;98562.70;1748764;82;25554;-66
2022/11/15 08:28:39;;;;;;;33.20;19.45;;;;;;;7.97;84.42;98558.59;1749347;81;25404;-66
2022/11/15 08:31:06;;;;;;;37.83;20.80;;;;;;;8.08;84.71;98559.78;1749049;82;27410;-67
2022/11/15 08:33:33;;;;;;;38.58;21.97;;;;;;;8.12;84.44;98553.42;1749003;82;25696;-67
2022/11/15 08:36:01;;;;;;;32.95;19.35;;;;;;;8.41;85.87;98553.73;1748892;81;25716;-67
2022/11/15 08:38:40;;;;;;;31.55;19.73;;;;;;;8.80;83.59;98546.73;1749141;81;25622;-67
2022/11/15 08:41:06;;;;;;;32.95;19.23;;;;;;;8.95;82.36;98548.91;1748811;82;25554;-67
2022/11/15 08:43:33;;;;;;;35.65;20.45;;;;;;;9.12;82.10;98549.08;1749011;81;28410;-67
2022/11/15 08:45:59;;;;;;;33.40;20.48;;;;;;;9.36;82.25;98545.84;1748662;82;25665;-68
2022/11/15 08:48:26;;;;;;;57.27;29.92;;;;;;;9.72;83.43;98551.84;1748998;82;25646;-68
2022/11/15 08:50:56;;;;;;;47.60;26.75;;;;;;;10.23;83.97;98548.94;1748772;81;25512;-68
2022/11/15 08:53:23;;;;;;;43.77;24.27;;;;;;;10.71;83.13;98547.16;1747506;81;25585;-68
2022/11/15 08:55:50;;;;;;;35.08;22.75;;;;;;;11.09;82.82;98540.31;1747413;82;27393;-68
2022/11/15 08:58:16;;;;;;;31.15;19.25;;;;;;;11.42;82.61;98538.48;1748872;82;25547;-71
2022/11/15 09:00:42;;;;;;;32.60;20.85;;;;;;;11.79;81.04;98539.52;1748054;81;26282;-71
2022/11/15 09:03:09;;;;;;;25.92;18.55;;;;;;;12.13;80.40;98533.76;1748596;82;25721;-71
2022/11/15 09:05:38;;;;;;;31.87;19.35;;;;;;;12.53;80.51;98523.59;1749106;81;25662;-73
2022/11/15 09:08:05;;;;;;;27.50;17.45;;;;;;;13.00;78.04;98519.12;1748725;82;27489;-76
2022/11/15 09:10:32;;;;;;;30.23;17.75;;;;;;;13.32;74.47;98513.27;1749277;81;25424;-70
2022/11/15 09:12:58;;;;;;;26.93;17.57;;;;;;;13.71;74.55;98511.73;1749056;81;25658;-77
2022/11/15 09:15:25;;;;;;;25.90;17.27;;;;;;;14.10;74.83;98520.56;1748860;82;25397;-70
2022/11/15 09:17:52;;;;;;;25.02;16.57;;;;;;;14.43;72.45;98517.53;1749272;81;25570;-77
2022/11/15 09:20:18;;;;;;;24.07;16.23;;;;;;;14.52;68.70;98518.23;1748998;81;27371;-79
2022/11/15 09:22:45;;;;;;;26.50;20.08;;;;;;;14.71;68.34;98518.22;1749027;82;25621;-74
2022/11/15 09:25:11;;;;;;;34.73;23.40;;;;;;;15.05;69.59;98512.58;1748746;81;25651;-77
2022/11/15 09:27:38;;;;;;;327.35;147.50;;;;;;;15.24;66.83;98513.36;1748711;82;25420;-79
2022/11/15 09:30:06;;;;;;;225.13;119.50;;;;;;;15.41;68.39;98506.77;1748797;82;25452;-72
2022/11/15 09:32:33;;;;;;;69.25;38.33;;;;;;;15.65;67.34;98502.30;1749129;81;27381;-78
2022/11/15 09:34:59;;;;;;;99.45;37.48;;;;;;;15.92;66.60;98498.47;1748651;82;25464;-76
2022/11/15 09:37:25;;;;;;;152.25;44.67;;;;;;;16.32;65.28;98497.93;1748836;81;25615;-74
2022/11/15 09:39:52;;;;;;;44.88;20.60;;;;;;;16.55;60.92;98498.08;1748724;82;25467;-77
2022/11/15 09:42:44;;;;;;;64.75;27.22;;;;;;;16.63;60.65;98492.14;1748875;81;25448;-77
2022/11/15 09:45:33;;;;;;;170.95;52.50;;;;;;;16.77;63.56;98493.88;1749133;81;27750;-73
2022/11/15 09:48:20;;;;;;;138.35;43.02;;;;;;;17.08;63.33;98490.04;1748614;81;25666;-80
2022/11/15 09:50:58;;;;;;;88.22;31.87;;;;;;;17.31;59.14;98487.95;1740356;82;25808;-75
2022/11/15 09:53:31;;;;;;;65.65;25.88;;;;;;;17.59;59.79;98491.09;1747775;82;25622;-80
2022/11/15 09:56:07;;;;;;;177.70;55.05;;;;;;;17.85;57.43;98492.95;1748327;82;25444;-78
2022/11/15 09:58:47;;;;;;;93.17;35.45;;;;;;;17.91;57.91;98489.50;1732788;82;27487;-78
2022/11/15 10:01:41;;;;;;;122.20;42.00;;;;;;;17.86;56.00;98482.89;1748575;81;25456;-66
2022/11/15 10:04:14;;;;;;;87.20;32.90;;;;;;;17.73;58.98;98481.45;1753862;81;25696;-76
2022/11/15 10:06:46;;;;;;;70.00;30.43;;;;;;;17.55;55.91;98471.63;1763742;80;25663;-73
2022/11/15 10:09:21;;;;;;;108.42;42.78;;;;;;;17.26;57.27;98468.27;1762795;80;25681;-74
2022/11/15 10:11:48;;;;;;;79.80;33.25;;;;;;;16.90;57.33;98466.09;1752730;81;27445;-76
2022/11/15 10:14:20;;;;;;;91.78;35.05;;;;;;;16.50;58.47;98466.56;1772010;78;25777;-77
2022/11/15 10:17:04;;;;;;;124.53;45.08;;;;;;;16.31;58.66;98459.79;1821737;78;25646;-77
2022/11/15 10:20:08;;;;;;;67.30;31.17;;;;;;;16.15;59.29;98459.80;1821450;78;25645;-77
2022/11/15 10:22:54;;;;;;;42.25;21.90;;;;;;;16.02;58.86;98457.69;1757977;81;25822;-77
2022/11/15 10:25:34;;;;;;;44.08;21.37;;;;;;;15.89;58.69;98450.03;1758644;81;28230;-78
2022/11/15 10:28:24;;;;;;;28.73;16.30;;;;;;;15.59;57.38;98444.31;1757597;81;25735;-76
2022/11/15 10:30:55;;;;;;;57.47;26.77;;;;;;;15.29;57.73;98448.23;1755636;81;25845;-78
2022/11/15 10:33:35;;;;;;;71.60;28.52;;;;;;;14.90;58.54;98446.51;1755093;81;25622;-77
2022/11/15 10:36:19;;;;;;;75.78;31.20;;;;;;;14.74;59.76;98445.81;1755675;81;25636;-78
2022/11/15 10:38:53;;;;;;;87.05;33.28;;;;;;;14.59;60.31;98436.30;1755252;81;27376;-69
2022/11/15 10:41:25;;;;;;;86.82;33.33;;;;;;;14.43;60.58;98438.96;1755040;81;25770;-73
2022/11/15 10:44:09;;;;;;;77.12;31.33;;;;;;;14.27;61.30;98440.21;1755262;81;25683;-75
2022/11/15 10:46:39;;;;;;;51.65;24.63;;;;;;;14.13;61.71;98431.70;1755424;81;25604;-78
2022/11/15 10:49:21;;;;;;;54.83;24.02;;;;;;;14.01;61.66;98425.63;1755052;81;25467;-78
2022/11/15 10:51:59;;;;;;;84.45;32.73;;;;;;;13.92;62.46;98423.54;1755434;81;27459;-78
2022/11/15 10:54:36;;;;;;;44.20;21.35;;;;;;;13.84;62.61;98416.98;1751933;81;25458;-77
2022/11/15 10:57:26;;;;;;;55.33;24.80;;;;;;;13.76;63.21;98421.44;1754855;81;25683;-77
2022/11/15 11:00:22;;;;;;;81.35;32.73;;;;;;;13.63;63.38;98410.98;1794768;78;25529;-77
2022/11/15 11:03:06;;;;;;;33.28;19.67;;;;;;;13.47;64.47;98410.78;1818939;78;25460;-79
2022/11/15 11:05:41;;;;;;;43.92;22.35;;;;;;;13.42;64.75;98409.63;1819349;78;27409;-78
2022/11/15 11:08:16;;;;;;;75.37;29.07;;;;;;;13.28;65.06;98405.80;1819086;78;25664;-76
2022/11/15 11:11:00;;;;;;;38.63;19.40;;;;;;;13.26;65.43;98406.70;1819336;78;25701;-75
2022/11/15 11:13:36;;;;;;;54.95;24.70;;;;;;;13.32;65.71;98403.19;1819357;78;25623;-74
2022/11/15 11:16:29;;;;;;;37.45;20.00;;;;;;;13.36;65.62;98406.27;1819239;78;25629;-77
2022/11/15 11:19:23;;;;;;;58.75;25.92;;;;;;;13.34;65.70;98398.94;1817855;78;27339;-78
2022/11/15 11:22:14;;;;;;;63.05;26.60;;;;;;;13.27;66.22;98393.97;1818812;78;25602;-73
2022/11/15 11:25:01;;;;;;;70.90;29.23;;;;;;;13.36;66.36;98399.39;1818212;78;25597;-77
2022/11/15 11:27:35;;;;;;;57.40;26.65;;;;;;;13.43;66.76;98394.16;1818417;78;25961;-76
2022/11/15 11:30:16;;;;;;;46.40;22.82;;;;;;;13.53;65.88;98386.64;1807723;78;25602;-76
2022/11/15 11:32:59;;;;;;;68.92;29.18;;;;;;;13.53;65.88;98386.64;1789304;80;28226;-68
2022/11/15 11:36:08;;;;;;;55.70;24.20;;;;;;;13.55;66.24;98383.78;1789312;80;25828;-78
2022/11/15 11:38:42;;;;;;;42.40;22.10;;;;;;;13.57;66.06;98375.73;1721424;83;25691;-70
2022/11/15 11:41:43;;;;;;;39.58;20.65;;;;;;;13.55;66.14;98371.39;1721175;83;25721;-76
2022/11/15 11:44:39;;;;;;;40.55;20.43;;;;;;;13.51;66.38;98373.22;1707758;83;25641;-78
2022/11/15 11:47:13;;;;;;;46.77;22.58;;;;;;;13.48;66.50;98368.37;1661482;86;27559;-73
2022/11/15 11:49:50;;;;;;;38.98;20.40;;;;;;;13.45;66.87;98354.47;1660827;86;25566;-79
2022/11/15 11:52:26;;;;;;;58.38;25.23;;;;;;;13.42;66.91;98340.83;1661249;86;25609;-80
2022/11/15 11:55:25;;;;;;;58.92;26.48;;;;;;;13.53;66.57;98355.77;1661229;86;25798;-80
2022/11/15 11:58:14;;;;;;;54.23;24.85;;;;;;;13.50;67.13;98355.08;1595071;89;25765;-78
2022/11/15 12:00:45;;;;;;;46.48;22.62;;;;;;;13.47;67.36;98348.06;1594983;89;27450;-79
2022/11/15 12:03:47;;;;;;;46.92;22.60;;;;;;;13.42;66.97;98342.20;1595217;89;25785;-72